sensor_id;sensor_type;location;lat;lon;timestamp;pressure;altitude;pressure_sealevel;temperature;humidity
68329;BME280;55182;56.864;60.554;2024-03-02T00:00:48;78418.22;;;-143.60;100.00
68329;BME280;55182;56.864;60.554;2024-03-02T00:03:14;78430.28;;;-143.60;100.00
68329;BME280;55182;56.864;60.554;2024-03-02T00:05:39;78434.28;;;-143.60;100.00
68329;BME280;55182;56.864;60.554;2024-03-02T00:08:05;78438.31;;;-143.60;100.00
68329;BME280;55182;56.864;60.554;2024-03-02T00:10:36;78450.38;;;-143.60;100.00
68329;BME280;55182;56.864;60.554;2024-03-02T00:13:02;78454.41;;;-143.60;100.00
68329;BME280;55182;56.864;60.554;2024-03-02T00:18:19;78454.41;;;-143.60;100.00
68329;BME280;55182;56.864;60.554;2024-03-02T00:20:45;78458.41;;;-143.60;100.00
68329;BME280;55182;56.864;60.554;2024-03-02T00:23:11;78466.47;;;-143.60;100.00
68329;BME280;55182;56.864;60.554;2024-03-02T00:25:39;78466.47;;;-143.60;100.00
68329;BME280;55182;56.864;60.554;2024-03-02T00:28:05;78462.44;;;-143.60;100.00
68329;BME280;55182;56.864;60.554;2024-03-02T00:33:19;78486.56;;;-143.60;100.00
68329;BME280;55182;56.864;60.554;2024-03-02T00:35:45;78498.63;;;-143.60;100.00
68329;BME280;55182;56.864;60.554;2024-03-02T00:38:11;78496.63;;;-143.60;100.00
68329;BME280;55182;56.864;60.554;2024-03-02T00:40:37;78494.59;;;-143.60;100.00
68329;BME280;55182;56.864;60.554;2024-03-02T00:43:02;78504.66;;;-143.60;100.00
68329;BME280;55182;56.864;60.554;2024-03-02T00:45:28;78502.66;;;-143.60;100.00
68329;BME280;55182;56.864;60.554;2024-03-02T00:47:53;78508.69;;;-143.60;100.00
68329;BME280;55182;56.864;60.554;2024-03-02T00:50:19;78508.69;;;-143.60;100.00
68329;BME280;55182;56.864;60.554;2024-03-02T00:52:45;78510.69;;;-143.60;100.00
68329;BME280;55182;56.864;60.554;2024-03-02T00:55:11;78508.69;;;-143.60;100.00
68329;BME280;55182;56.864;60.554;2024-03-02T00:57:37;78512.72;;;-143.60;100.00
68329;BME280;55182;56.864;60.554;2024-03-02T01:00:03;78516.72;;;-143.60;100.00
68329;BME280;55182;56.864;60.554;2024-03-02T01:02:28;78522.75;;;-143.60;100.00
68329;BME280;55182;56.864;60.554;2024-03-02T01:04:54;78532.81;;;-143.60;100.00
68329;BME280;55182;56.864;60.554;2024-03-02T01:07:19;78530.81;;;-143.60;100.00
68329;BME280;55182;56.864;60.554;2024-03-02T01:09:45;78530.81;;;-143.60;100.00
68329;BME280;55182;56.864;60.554;2024-03-02T01:12:10;78538.84;;;-143.60;100.00
68329;BME280;55182;56.864;60.554;2024-03-02T01:14:35;78538.84;;;-143.60;100.00
68329;BME280;55182;56.864;60.554;2024-03-02T01:17:01;78546.88;;;-143.60;100.00
68329;BME280;55182;56.864;60.554;2024-03-02T01:19:26;78546.88;;;-143.60;100.00
68329;BME280;55182;56.864;60.554;2024-03-02T01:21:52;78540.84;;;-143.60;100.00
68329;BME280;55182;56.864;60.554;2024-03-02T01:24:17;78546.88;;;-143.60;100.00
68329;BME280;55182;56.864;60.554;2024-03-02T01:26:43;78546.88;;;-143.60;100.00
68329;BME280;55182;56.864;60.554;2024-03-02T01:29:09;78558.94;;;-143.60;100.00
68329;BME280;55182;56.864;60.554;2024-03-02T01:31:34;78554.94;;;-143.60;100.00
68329;BME280;55182;56.864;60.554;2024-03-02T01:34:00;78554.94;;;-143.60;100.00
68329;BME280;55182;56.864;60.554;2024-03-02T01:36:25;78562.97;;;-143.60;100.00
68329;BME280;55182;56.864;60.554;2024-03-02T01:38:50;78564.97;;;-143.60;100.00
68329;BME280;55182;56.864;60.554;2024-03-02T01:41:16;78554.94;;;-143.60;100.00
68329;BME280;55182;56.864;60.554;2024-03-02T01:43:41;78542.88;;;-143.60;100.00
68329;BME280;55182;56.864;60.554;2024-03-02T01:46:07;78538.84;;;-143.60;100.00
68329;BME280;55182;56.864;60.554;2024-03-02T01:48:32;78544.88;;;-143.60;100.00
68329;BME280;55182;56.864;60.554;2024-03-02T01:50:58;78552.91;;;-143.60;100.00
68329;BME280;55182;56.864;60.554;2024-03-02T01:53:23;78554.94;;;-143.60;100.00
68329;BME280;55182;56.864;60.554;2024-03-02T01:55:49;78558.94;;;-143.60;100.00
68329;BME280;55182;56.864;60.554;2024-03-02T01:58:14;78567.00;;;-143.60;100.00
68329;BME280;55182;56.864;60.554;2024-03-02T02:00:40;78567.00;;;-143.60;100.00
68329;BME280;55182;56.864;60.554;2024-03-02T02:03:05;78569.00;;;-143.60;100.00
68329;BME280;55182;56.864;60.554;2024-03-02T02:05:31;78569.00;;;-143.60;100.00
68329;BME280;55182;56.864;60.554;2024-03-02T02:07:57;78571.00;;;-143.60;100.00
68329;BME280;55182;56.864;60.554;2024-03-02T02:10:22;78583.09;;;-143.60;100.00
68329;BME280;55182;56.864;60.554;2024-03-02T02:12:48;78587.09;;;-143.60;100.00
68329;BME280;55182;56.864;60.554;2024-03-02T02:15:26;78595.16;;;-143.60;100.00
68329;BME280;55182;56.864;60.554;2024-03-02T02:17:51;78607.22;;;-143.60;100.00
68329;BME280;55182;56.864;60.554;2024-03-02T02:20:17;78611.22;;;-143.60;100.00
68329;BME280;55182;56.864;60.554;2024-03-02T02:22:58;78613.25;;;-143.60;100.00
68329;BME280;55182;56.864;60.554;2024-03-02T02:25:24;78599.16;;;-143.60;100.00
68329;BME280;55182;56.864;60.554;2024-03-02T02:27:50;78601.19;;;-143.60;100.00
68329;BME280;55182;56.864;60.554;2024-03-02T02:30:19;78617.25;;;-143.60;100.00
68329;BME280;55182;56.864;60.554;2024-03-02T02:32:44;78627.31;;;-143.60;100.00
68329;BME280;55182;56.864;60.554;2024-03-02T02:35:10;78619.28;;;-143.60;100.00
68329;BME280;55182;56.864;60.554;2024-03-02T02:37:35;78627.31;;;-143.60;100.00
68329;BME280;55182;56.864;60.554;2024-03-02T02:40:01;78631.34;;;-143.60;100.00
68329;BME280;55182;56.864;60.554;2024-03-02T02:42:26;78625.31;;;-143.60;100.00
68329;BME280;55182;56.864;60.554;2024-03-02T02:44:52;78623.28;;;-143.60;100.00
68329;BME280;55182;56.864;60.554;2024-03-02T02:47:17;78635.34;;;-143.60;100.00
68329;BME280;55182;56.864;60.554;2024-03-02T02:49:42;78655.47;;;-143.60;100.00
68329;BME280;55182;56.864;60.554;2024-03-02T02:52:08;78665.53;;;-143.60;100.00
68329;BME280;55182;56.864;60.554;2024-03-02T02:54:33;78669.53;;;-143.60;100.00
68329;BME280;55182;56.864;60.554;2024-03-02T02:56:59;78675.56;;;-143.60;100.00
68329;BME280;55182;56.864;60.554;2024-03-02T02:59:24;78659.50;;;-143.60;100.00
68329;BME280;55182;56.864;60.554;2024-03-02T03:01:51;78635.34;;;-143.60;100.00
68329;BME280;55182;56.864;60.554;2024-03-02T03:04:16;78639.38;;;-143.60;100.00
68329;BME280;55182;56.864;60.554;2024-03-02T03:06:42;78649.44;;;-143.60;100.00
68329;BME280;55182;56.864;60.554;2024-03-02T03:09:07;78649.44;;;-143.60;100.00
68329;BME280;55182;56.864;60.554;2024-03-02T03:11:32;78651.44;;;-143.60;100.00
68329;BME280;55182;56.864;60.554;2024-03-02T03:13:58;78659.50;;;-143.60;100.00
68329;BME280;55182;56.864;60.554;2024-03-02T03:16:23;78657.47;;;-143.60;100.00
68329;BME280;55182;56.864;60.554;2024-03-02T03:18:49;78661.50;;;-143.60;100.00
68329;BME280;55182;56.864;60.554;2024-03-02T03:21:14;78655.47;;;-143.60;100.00
68329;BME280;55182;56.864;60.554;2024-03-02T03:23:40;78645.41;;;-143.60;100.00
68329;BME280;55182;56.864;60.554;2024-03-02T03:26:05;78629.31;;;-143.60;100.00
68329;BME280;55182;56.864;60.554;2024-03-02T03:28:30;78615.25;;;-143.60;100.00
68329;BME280;55182;56.864;60.554;2024-03-02T03:30:56;78615.25;;;-143.60;100.00
68329;BME280;55182;56.864;60.554;2024-03-02T03:33:21;78615.25;;;-143.60;100.00
68329;BME280;55182;56.864;60.554;2024-03-02T03:35:47;78613.25;;;-143.60;100.00
68329;BME280;55182;56.864;60.554;2024-03-02T03:38:12;78615.25;;;-143.60;100.00
68329;BME280;55182;56.864;60.554;2024-03-02T03:40:37;78619.28;;;-143.60;100.00
68329;BME280;55182;56.864;60.554;2024-03-02T03:43:03;78615.25;;;-143.60;100.00
68329;BME280;55182;56.864;60.554;2024-03-02T03:45:28;78615.25;;;-143.60;100.00
68329;BME280;55182;56.864;60.554;2024-03-02T03:47:54;78619.28;;;-143.60;100.00
68329;BME280;55182;56.864;60.554;2024-03-02T03:50:19;78611.22;;;-143.60;100.00
68329;BME280;55182;56.864;60.554;2024-03-02T03:52:45;78609.22;;;-143.60;100.00
68329;BME280;55182;56.864;60.554;2024-03-02T03:55:10;78603.19;;;-143.60;100.00
68329;BME280;55182;56.864;60.554;2024-03-02T03:57:35;78599.16;;;-143.60;100.00
68329;BME280;55182;56.864;60.554;2024-03-02T04:00:01;78595.16;;;-143.60;100.00
68329;BME280;55182;56.864;60.554;2024-03-02T04:02:37;78589.13;;;-143.60;99.96
68329;BME280;55182;56.864;60.554;2024-03-02T04:05:03;78583.09;;;-143.60;99.86
68329;BME280;55182;56.864;60.554;2024-03-02T04:07:28;78577.06;;;-143.60;99.94
68329;BME280;55182;56.864;60.554;2024-03-02T04:09:54;78577.06;;;-143.60;99.87
68329;BME280;55182;56.864;60.554;2024-03-02T04:12:19;78564.97;;;-143.60;99.96
68329;BME280;55182;56.864;60.554;2024-03-02T04:14:45;78564.97;;;-143.60;99.79
68329;BME280;55182;56.864;60.554;2024-03-02T04:17:10;78554.94;;;-143.60;99.64
68329;BME280;55182;56.864;60.554;2024-03-02T04:19:35;78554.94;;;-143.60;99.75
68329;BME280;55182;56.864;60.554;2024-03-02T04:22:01;78540.84;;;-143.60;99.93
68329;BME280;55182;56.864;60.554;2024-03-02T04:24:26;78532.81;;;-143.60;99.78
68329;BME280;55182;56.864;60.554;2024-03-02T04:26:52;78518.75;;;-143.60;99.86
68329;BME280;55182;56.864;60.554;2024-03-02T04:29:17;78518.75;;;-143.60;100.00
68329;BME280;55182;56.864;60.554;2024-03-02T04:31:43;78496.63;;;-143.60;100.00
68329;BME280;55182;56.864;60.554;2024-03-02T04:34:08;78486.56;;;-143.60;100.00
68329;BME280;55182;56.864;60.554;2024-03-02T04:36:34;78472.50;;;-143.60;99.96
68329;BME280;55182;56.864;60.554;2024-03-02T04:38:59;78458.41;;;-143.60;100.00
68329;BME280;55182;56.864;60.554;2024-03-02T04:41:24;78442.34;;;-143.60;100.00
68329;BME280;55182;56.864;60.554;2024-03-02T04:43:50;78426.25;;;-143.60;100.00
68329;BME280;55182;56.864;60.554;2024-03-02T04:46:15;78406.13;;;-143.60;100.00
68329;BME280;55182;56.864;60.554;2024-03-02T04:48:41;78388.03;;;-143.60;100.00
68329;BME280;55182;56.864;60.554;2024-03-02T04:51:06;78367.94;;;-143.60;100.00
68329;BME280;55182;56.864;60.554;2024-03-02T04:53:32;78359.91;;;-143.60;100.00
68329;BME280;55182;56.864;60.554;2024-03-02T04:55:57;78347.84;;;-143.60;100.00
68329;BME280;55182;56.864;60.554;2024-03-02T04:58:22;78343.81;;;-143.60;100.00
68329;BME280;55182;56.864;60.554;2024-03-02T05:00:48;78321.69;;;-143.60;100.00
68329;BME280;55182;56.864;60.554;2024-03-02T05:03:13;78305.63;;;-143.60;100.00
68329;BME280;55182;56.864;60.554;2024-03-02T05:05:39;78285.50;;;-143.60;99.96
68329;BME280;55182;56.864;60.554;2024-03-02T05:08:04;78261.38;;;-143.60;100.00
68329;BME280;55182;56.864;60.554;2024-03-02T05:10:30;78225.19;;;-143.60;100.00
68329;BME280;55182;56.864;60.554;2024-03-02T05:12:55;78189.00;;;-143.60;100.00
68329;BME280;55182;56.864;60.554;2024-03-02T05:15:20;78182.97;;;-143.60;99.46
68329;BME280;55182;56.864;60.554;2024-03-02T05:17:46;78180.97;;;-143.60;99.10
68329;BME280;55182;56.864;60.554;2024-03-02T05:20:11;78174.94;;;-143.60;98.82
68329;BME280;55182;56.864;60.554;2024-03-02T05:22:37;78160.84;;;-143.60;98.47
68329;BME280;55182;56.864;60.554;2024-03-02T05:25:03;78148.78;;;-143.60;98.11
68329;BME280;55182;56.864;60.554;2024-03-02T05:27:28;78120.66;;;-143.60;98.01
68329;BME280;55182;56.864;60.554;2024-03-02T05:29:54;78102.56;;;-143.60;98.19
68329;BME280;55182;56.864;60.554;2024-03-02T05:32:19;78090.50;;;-143.60;97.36
68329;BME280;55182;56.864;60.554;2024-03-02T05:34:45;78084.47;;;-143.60;97.19
68329;BME280;55182;56.864;60.554;2024-03-02T05:37:10;78060.34;;;-143.60;97.31
68329;BME280;55182;56.864;60.554;2024-03-02T05:39:36;78044.25;;;-143.60;97.25
68329;BME280;55182;56.864;60.554;2024-03-02T05:42:01;78040.22;;;-143.60;96.70
68329;BME280;55182;56.864;60.554;2024-03-02T05:44:27;78026.16;;;-143.60;96.84
68329;BME280;55182;56.864;60.554;2024-03-02T05:46:52;78012.09;;;-143.60;96.88
68329;BME280;55182;56.864;60.554;2024-03-02T05:49:18;78004.03;;;-143.60;96.36
68329;BME280;55182;56.864;60.554;2024-03-02T05:51:43;77996.00;;;-143.60;96.15
68329;BME280;55182;56.864;60.554;2024-03-02T05:54:09;77975.91;;;-143.60;96.00
68329;BME280;55182;56.864;60.554;2024-03-02T05:56:34;77951.78;;;-143.60;96.11
68329;BME280;55182;56.864;60.554;2024-03-02T05:59:00;77937.69;;;-143.60;95.87
68329;BME280;55182;56.864;60.554;2024-03-02T06:01:25;77921.63;;;-143.60;95.64
68329;BME280;55182;56.864;60.554;2024-03-02T06:03:51;77915.59;;;-143.60;95.35
68329;BME280;55182;56.864;60.554;2024-03-02T06:06:16;77903.53;;;-143.60;95.37
68329;BME280;55182;56.864;60.554;2024-03-02T06:08:42;77887.44;;;-143.60;95.35
68329;BME280;55182;56.864;60.554;2024-03-02T06:11:07;77875.38;;;-143.60;95.36
68329;BME280;55182;56.864;60.554;2024-03-02T06:13:33;77869.34;;;-143.60;95.20
68329;BME280;55182;56.864;60.554;2024-03-02T06:15:58;77859.28;;;-143.60;94.99
68329;BME280;55182;56.864;60.554;2024-03-02T06:18:24;77849.25;;;-143.60;94.98
68329;BME280;55182;56.864;60.554;2024-03-02T06:20:49;77829.13;;;-143.60;95.23
68329;BME280;55182;56.864;60.554;2024-03-02T06:23:15;77813.06;;;-143.60;94.90
68329;BME280;55182;56.864;60.554;2024-03-02T06:25:40;77807.03;;;-143.60;94.85
68329;BME280;55182;56.864;60.554;2024-03-02T06:28:05;77782.91;;;-143.60;94.49
68329;BME280;55182;56.864;60.554;2024-03-02T06:30:31;77766.81;;;-143.60;93.87
68329;BME280;55182;56.864;60.554;2024-03-02T06:32:56;77738.69;;;-143.60;93.45
68329;BME280;55182;56.864;60.554;2024-03-02T06:35:22;77710.53;;;-143.60;92.60
68329;BME280;55182;56.864;60.554;2024-03-02T06:37:47;77690.44;;;-143.60;91.96
68329;BME280;55182;56.864;60.554;2024-03-02T06:40:13;77658.25;;;-143.60;91.34
68329;BME280;55182;56.864;60.554;2024-03-02T06:42:38;77634.13;;;-143.60;90.38
68329;BME280;55182;56.864;60.554;2024-03-02T06:45:04;77597.97;;;-143.60;88.99
68329;BME280;55182;56.864;60.554;2024-03-02T06:47:29;77573.84;;;-143.60;88.57
68329;BME280;55182;56.864;60.554;2024-03-02T06:49:55;77559.75;;;-143.60;87.68
68329;BME280;55182;56.864;60.554;2024-03-02T06:52:20;77537.66;;;-143.60;86.29
68329;BME280;55182;56.864;60.554;2024-03-02T06:54:46;77537.66;;;-143.60;85.75
68329;BME280;55182;56.864;60.554;2024-03-02T06:57:11;77533.63;;;-143.60;85.93
68329;BME280;55182;56.864;60.554;2024-03-02T06:59:37;77529.59;;;-143.60;85.27
68329;BME280;55182;56.864;60.554;2024-03-02T07:02:02;77525.59;;;-143.60;85.27
68329;BME280;55182;56.864;60.554;2024-03-02T07:04:28;77501.47;;;-143.60;84.18
68329;BME280;55182;56.864;60.554;2024-03-02T07:06:53;77483.38;;;-143.60;83.94
68329;BME280;55182;56.864;60.554;2024-03-02T07:09:19;77465.28;;;-143.60;83.40
68329;BME280;55182;56.864;60.554;2024-03-02T07:11:44;77453.22;;;-143.60;82.25
68329;BME280;55182;56.864;60.554;2024-03-02T07:14:10;77447.19;;;-143.60;82.38
68329;BME280;55182;56.864;60.554;2024-03-02T07:16:37;77427.09;;;-143.60;82.03
68329;BME280;55182;56.864;60.554;2024-03-02T07:19:02;77407.00;;;-143.60;81.70
68329;BME280;55182;56.864;60.554;2024-03-02T07:21:27;77396.94;;;-143.60;80.43
68329;BME280;55182;56.864;60.554;2024-03-02T07:23:53;77394.94;;;-143.60;79.34
68329;BME280;55182;56.864;60.554;2024-03-02T07:26:18;77370.81;;;-143.60;79.40
68329;BME280;55182;56.864;60.554;2024-03-02T07:28:47;77350.72;;;-143.60;78.36
68329;BME280;55182;56.864;60.554;2024-03-02T07:31:13;77332.63;;;-143.60;78.60
68329;BME280;55182;56.864;60.554;2024-03-02T07:33:38;77314.53;;;-143.60;77.98
68329;BME280;55182;56.864;60.554;2024-03-02T07:36:04;77290.41;;;-143.60;76.35
68329;BME280;55182;56.864;60.554;2024-03-02T07:38:30;77274.31;;;-143.60;75.18
68329;BME280;55182;56.864;60.554;2024-03-02T07:40:55;77264.28;;;-143.60;74.82
68329;BME280;55182;56.864;60.554;2024-03-02T07:43:21;77248.19;;;-143.60;74.57
68329;BME280;55182;56.864;60.554;2024-03-02T07:45:47;77232.13;;;-143.60;74.81
68329;BME280;55182;56.864;60.554;2024-03-02T07:48:12;77236.13;;;-143.60;73.57
68329;BME280;55182;56.864;60.554;2024-03-02T07:50:38;77224.06;;;-143.60;73.58
68329;BME280;55182;56.864;60.554;2024-03-02T07:53:04;77216.03;;;-143.60;73.77
68329;BME280;55182;56.864;60.554;2024-03-02T07:55:29;77201.97;;;-143.60;74.43
68329;BME280;55182;56.864;60.554;2024-03-02T07:57:55;77183.88;;;-143.60;73.89
68329;BME280;55182;56.864;60.554;2024-03-02T08:00:21;77175.84;;;-143.60;73.48
68329;BME280;55182;56.864;60.554;2024-03-02T08:02:47;77167.78;;;-143.60;72.99
68329;BME280;55182;56.864;60.554;2024-03-02T08:05:12;77155.72;;;-143.60;72.41
68329;BME280;55182;56.864;60.554;2024-03-02T08:07:38;77143.69;;;-143.60;73.48
68329;BME280;55182;56.864;60.554;2024-03-02T08:10:03;77135.63;;;-143.60;73.33
68329;BME280;55182;56.864;60.554;2024-03-02T08:12:29;77123.56;;;-143.60;73.04
68329;BME280;55182;56.864;60.554;2024-03-02T08:14:54;77109.50;;;-143.60;71.96
68329;BME280;55182;56.864;60.554;2024-03-02T08:17:20;77105.47;;;-143.60;71.82
68329;BME280;55182;56.864;60.554;2024-03-02T08:19:45;77091.41;;;-143.60;71.64
68329;BME280;55182;56.864;60.554;2024-03-02T08:22:10;77075.34;;;-143.60;72.10
68329;BME280;55182;56.864;60.554;2024-03-02T08:24:36;77067.28;;;-143.60;70.00
68329;BME280;55182;56.864;60.554;2024-03-02T08:27:01;77057.25;;;-143.60;69.57
68329;BME280;55182;56.864;60.554;2024-03-02T08:29:27;77041.16;;;-143.60;70.09
68329;BME280;55182;56.864;60.554;2024-03-02T08:31:53;77045.19;;;-143.60;68.95
68329;BME280;55182;56.864;60.554;2024-03-02T08:34:18;77041.16;;;-143.60;70.40
68329;BME280;55182;56.864;60.554;2024-03-02T08:36:44;77027.09;;;-143.60;69.50
68329;BME280;55182;56.864;60.554;2024-03-02T08:39:09;77015.03;;;-143.60;69.49
68329;BME280;55182;56.864;60.554;2024-03-02T08:41:35;77013.03;;;-143.60;68.69
68329;BME280;55182;56.864;60.554;2024-03-02T08:44:00;76992.94;;;-143.60;68.81
68329;BME280;55182;56.864;60.554;2024-03-02T08:46:26;76984.88;;;-143.60;68.32
68329;BME280;55182;56.864;60.554;2024-03-02T08:48:51;76974.84;;;-143.60;68.16
68329;BME280;55182;56.864;60.554;2024-03-02T08:51:17;76970.81;;;-143.60;67.88
68329;BME280;55182;56.864;60.554;2024-03-02T08:53:42;76962.78;;;-143.60;67.56
68329;BME280;55182;56.864;60.554;2024-03-02T08:56:07;76958.75;;;-143.60;67.36
68329;BME280;55182;56.864;60.554;2024-03-02T08:58:33;76958.75;;;-143.60;68.54
68329;BME280;55182;56.864;60.554;2024-03-02T09:00:58;76950.72;;;-143.60;67.07
68329;BME280;55182;56.864;60.554;2024-03-02T09:03:24;76934.63;;;-143.60;67.04
68329;BME280;55182;56.864;60.554;2024-03-02T09:05:49;76918.56;;;-143.60;66.83
68329;BME280;55182;56.864;60.554;2024-03-02T09:08:15;76914.53;;;-143.60;66.34
68329;BME280;55182;56.864;60.554;2024-03-02T09:10:40;76908.50;;;-143.60;64.54
68329;BME280;55182;56.864;60.554;2024-03-02T09:13:06;76898.47;;;-143.60;65.70
68329;BME280;55182;56.864;60.554;2024-03-02T09:15:31;76880.38;;;-143.60;65.27
68329;BME280;55182;56.864;60.554;2024-03-02T09:17:57;76868.31;;;-143.60;64.42
68329;BME280;55182;56.864;60.554;2024-03-02T09:20:22;76850.22;;;-143.60;64.03
68329;BME280;55182;56.864;60.554;2024-03-02T09:22:48;76826.09;;;-143.60;63.54
68329;BME280;55182;56.864;60.554;2024-03-02T09:25:13;76797.97;;;-143.60;63.59
68329;BME280;55182;56.864;60.554;2024-03-02T09:27:39;76779.88;;;-143.60;63.18
68329;BME280;55182;56.864;60.554;2024-03-02T09:30:07;76777.88;;;-143.60;63.02
68329;BME280;55182;56.864;60.554;2024-03-02T09:32:33;76781.91;;;-143.60;62.85
68329;BME280;55182;56.864;60.554;2024-03-02T09:34:59;76777.88;;;-143.60;62.34
68329;BME280;55182;56.864;60.554;2024-03-02T09:37:24;76775.88;;;-143.60;63.42
68329;BME280;55182;56.864;60.554;2024-03-02T09:39:49;76745.72;;;-143.60;64.81
68329;BME280;55182;56.864;60.554;2024-03-02T09:42:15;76719.59;;;-143.60;63.28
68329;BME280;55182;56.864;60.554;2024-03-02T09:44:41;76693.47;;;-143.60;61.48
68329;BME280;55182;56.864;60.554;2024-03-02T09:47:07;76685.44;;;-143.60;61.29
68329;BME280;55182;56.864;60.554;2024-03-02T09:49:33;76679.41;;;-143.60;60.85
68329;BME280;55182;56.864;60.554;2024-03-02T09:51:58;76681.41;;;-143.60;60.49
68329;BME280;55182;56.864;60.554;2024-03-02T09:54:24;76667.34;;;-143.60;60.62
68329;BME280;55182;56.864;60.554;2024-03-02T09:56:50;76669.34;;;-143.60;59.32
68329;BME280;55182;56.864;60.554;2024-03-02T09:59:15;76653.25;;;-143.60;59.55
68329;BME280;55182;56.864;60.554;2024-03-02T10:01:50;76629.16;;;-143.60;60.06
68329;BME280;55182;56.864;60.554;2024-03-02T10:04:20;76597.00;;;-143.60;59.55
68329;BME280;55182;56.864;60.554;2024-03-02T10:06:45;76564.84;;;-143.60;58.56
68329;BME280;55182;56.864;60.554;2024-03-02T10:09:11;76564.84;;;-143.60;57.73
68329;BME280;55182;56.864;60.554;2024-03-02T10:11:51;76564.84;;;-143.60;57.36
68329;BME280;55182;56.864;60.554;2024-03-02T10:14:16;76576.91;;;-143.60;57.17
68329;BME280;55182;56.864;60.554;2024-03-02T10:16:43;76584.94;;;-143.60;58.25
68329;BME280;55182;56.864;60.554;2024-03-02T10:21:40;76611.06;;;-143.60;59.55
68329;BME280;55182;56.864;60.554;2024-03-02T10:24:09;76641.22;;;-143.60;59.67
68329;BME280;55182;56.864;60.554;2024-03-02T10:26:34;76665.31;;;-143.60;60.63
68329;BME280;55182;56.864;60.554;2024-03-02T10:28:59;76677.38;;;-143.60;60.87
68329;BME280;55182;56.864;60.554;2024-03-02T10:31:25;76671.34;;;-143.60;61.16
68329;BME280;55182;56.864;60.554;2024-03-02T10:33:51;76673.38;;;-143.60;61.36
68329;BME280;55182;56.864;60.554;2024-03-02T10:36:16;76667.34;;;-143.60;59.95
68329;BME280;55182;56.864;60.554;2024-03-02T10:38:42;76653.25;;;-143.60;59.93
68329;BME280;55182;56.864;60.554;2024-03-02T10:41:07;76645.22;;;-143.60;60.23
68329;BME280;55182;56.864;60.554;2024-03-02T10:43:33;76633.16;;;-143.60;60.37
68329;BME280;55182;56.864;60.554;2024-03-02T10:45:59;76623.13;;;-143.60;60.96
68329;BME280;55182;56.864;60.554;2024-03-02T10:48:25;76619.09;;;-143.60;58.83
68329;BME280;55182;56.864;60.554;2024-03-02T10:50:51;76611.06;;;-143.60;58.33
68329;BME280;55182;56.864;60.554;2024-03-02T10:53:16;76599.00;;;-143.60;58.46
68329;BME280;55182;56.864;60.554;2024-03-02T10:55:41;76586.94;;;-143.60;57.86
68329;BME280;55182;56.864;60.554;2024-03-02T10:58:07;76570.88;;;-143.60;58.20
68329;BME280;55182;56.864;60.554;2024-03-02T11:00:35;76556.81;;;-143.60;58.26
68329;BME280;55182;56.864;60.554;2024-03-02T11:03:04;76552.78;;;-143.60;57.80
68329;BME280;55182;56.864;60.554;2024-03-02T11:05:34;76550.78;;;-143.60;58.18
68329;BME280;55182;56.864;60.554;2024-03-02T11:08:02;76554.78;;;-143.60;57.68
68329;BME280;55182;56.864;60.554;2024-03-02T11:10:28;76544.75;;;-143.60;58.60
68329;BME280;55182;56.864;60.554;2024-03-02T11:13:02;76552.78;;;-143.60;58.20
68329;BME280;55182;56.864;60.554;2024-03-02T11:15:30;76552.78;;;-143.60;58.74
68329;BME280;55182;56.864;60.554;2024-03-02T11:17:56;76560.81;;;-143.60;58.61
68329;BME280;55182;56.864;60.554;2024-03-02T11:20:22;76564.84;;;-143.60;57.28
68329;BME280;55182;56.864;60.554;2024-03-02T11:22:48;76558.81;;;-143.60;57.40
68329;BME280;55182;56.864;60.554;2024-03-02T11:25:23;76556.81;;;-143.60;59.27
68329;BME280;55182;56.864;60.554;2024-03-02T11:27:58;76548.75;;;-143.60;58.89
68329;BME280;55182;56.864;60.554;2024-03-02T11:33:02;76528.66;;;-143.60;57.26
68329;BME280;55182;56.864;60.554;2024-03-02T11:35:28;76522.63;;;-143.60;58.20
68329;BME280;55182;56.864;60.554;2024-03-02T11:37:54;76516.59;;;-143.60;57.72
68329;BME280;55182;56.864;60.554;2024-03-02T11:40:22;76508.56;;;-143.60;57.67
68329;BME280;55182;56.864;60.554;2024-03-02T11:42:48;76508.56;;;-143.60;57.72
68329;BME280;55182;56.864;60.554;2024-03-02T11:45:17;76508.56;;;-143.60;58.48
68329;BME280;55182;56.864;60.554;2024-03-02T11:47:51;76510.59;;;-143.60;56.99
68329;BME280;55182;56.864;60.554;2024-03-02T11:50:35;76506.56;;;-143.60;57.81
68329;BME280;55182;56.864;60.554;2024-03-02T11:53:01;76512.59;;;-143.60;59.21
68329;BME280;55182;56.864;60.554;2024-03-02T11:55:26;76514.59;;;-143.60;57.46
68329;BME280;55182;56.864;60.554;2024-03-02T11:57:52;76514.59;;;-143.60;57.35
68329;BME280;55182;56.864;60.554;2024-03-02T12:00:17;76518.63;;;-143.60;57.54
68329;BME280;55182;56.864;60.554;2024-03-02T12:02:43;76528.66;;;-143.60;58.66
68329;BME280;55182;56.864;60.554;2024-03-02T12:05:08;76530.69;;;-143.60;59.50
68329;BME280;55182;56.864;60.554;2024-03-02T12:07:34;76524.66;;;-143.60;59.51
68329;BME280;55182;56.864;60.554;2024-03-02T12:10:00;76516.59;;;-143.60;59.18
68329;BME280;55182;56.864;60.554;2024-03-02T12:12:25;76514.59;;;-143.60;59.20
68329;BME280;55182;56.864;60.554;2024-03-02T12:14:51;76508.56;;;-143.60;59.36
68329;BME280;55182;56.864;60.554;2024-03-02T12:17:17;76506.56;;;-143.60;59.03
68329;BME280;55182;56.864;60.554;2024-03-02T12:19:42;76502.53;;;-143.60;60.52
68329;BME280;55182;56.864;60.554;2024-03-02T12:22:08;76508.56;;;-143.60;60.08
68329;BME280;55182;56.864;60.554;2024-03-02T12:24:34;76504.56;;;-143.60;61.06
68329;BME280;55182;56.864;60.554;2024-03-02T12:26:59;76516.59;;;-143.60;59.76
68329;BME280;55182;56.864;60.554;2024-03-02T12:29:25;76522.63;;;-143.60;60.69